MSC Vanessa — HOWD — position and weather

sailwx.info

Track history (hours):
 
Tides and Currents Weather Stations Pressure Air Temp Water Temp Dewpoint Dewpoint Depression Visibility Wind Speed Wind Dir Waves Ship Positions

MSC Vanessa

Last reported at 2016-Apr-26 16:32 UTC. Time now 2016-May-02 21:19 UTC.
Position S 27°40' W 048°07'.

Length 300 m; draft 9.6 m.

Type: Cargo ship. MMSI: 356946000.

Date/timePositionNaut miles runAvg speedWind from/ knotsBaromVisibWave heightAir tempDewpointWater temp
2016-Apr-26 16:32S 27°40' W 048°07'16920.7
2016-Apr-26 08:22S 25°04' W 046°51'1720.7
2016-Apr-26 07:33S 24°49' W 046°44'2020.0
2016-Apr-26 06:33S 24°31' W 046°35'1919.2
2016-Apr-26 05:33S 24°13' W 046°27'1514.8
2016-Apr-26 04:33S 23°60' W 046°20'5 1.4
2016-Apr-26 01:12S 23°55' W 046°21'0 0.0
2016-Apr-26 00:30S 23°55' W 046°21'0 0.0
2016-Apr-25 23:09S 23°55' W 046°21'0 0.0
2016-Apr-25 22:30S 23°55' W 046°21'0 0.0
2016-Apr-25 21:30S 23°55' W 046°21'0 0.0
2016-Apr-25 20:30S 23°55' W 046°21'0 0.0
2016-Apr-25 19:27S 23°55' W 046°21'0 0.0
2016-Apr-25 11:06S 23°55' W 046°21'2 3.8
2016-Apr-25 10:32S 23°56' W 046°19'6 6.4
2016-Apr-25 09:33S 24°02' W 046°21'1110.7
2016-Apr-25 08:33S 24°13' W 046°21'6 5.9
2016-Apr-25 07:33S 24°18' W 046°18'1 0.9
2016-Apr-25 06:34S 24°17' W 046°18'4 3.7
2016-Apr-25 05:33S 24°16' W 046°14'7 6.5
2016-Apr-25 04:33S 24°16' W 046°07'7 7.1
2016-Apr-25 03:33S 24°16' W 045°59'1413.5
2016-Apr-25 02:33S 24°16' W 045°44'1413.9
2016-Apr-25 01:33S 24°14' W 045°29'1414.0
2016-Apr-25 00:33S 24°10' W 045°14'1414.2
2016-Apr-24 23:33S 24°06' W 044°59'1414.5
2016-Apr-24 22:34S 24°02' W 044°44'1414.4
2016-Apr-24 21:33S 23°58' W 044°29'1414.3
2016-Apr-24 20:33S 23°54' W 044°14'1414.4
2016-Apr-24 19:33S 23°50' W 043°59'1914.1
2016-Apr-24 18:11S 23°45' W 043°38'1614.1
2016-Apr-24 17:05S 23°40' W 043°22'714.0
2016-Apr-24 16:33S 23°38' W 043°14'1414.1
2016-Apr-24 15:33S 23°34' W 042°60'1515.5
2016-Apr-24 14:34S 23°30' W 042°43'2019.9
2016-Apr-24 13:33S 23°24' W 042°23'2222.0
2016-Apr-24 12:33S 23°18' W 041°60'1919.2
2016-Apr-24 11:33S 23°07' W 041°42'2116.9
2016-Apr-24 10:18S 22°53' W 041°25'  
Track history (hours):
 
Tides and Currents Weather Stations Pressure Air Temp Water Temp Dewpoint Dewpoint Depression Visibility Wind Speed Wind Dir Waves Ship Positions

MSC Vanessa

Last reported at 2016-Apr-26 16:32 UTC. Time now 2016-May-02 21:19 UTC.
Position S 27°40' W 048°07'.

Length 300 m; draft 9.6 m.

Type: Cargo ship. MMSI: 356946000.

Date/timePositionNaut miles runAvg speedWind from/ knotsBaromVisibWave heightAir tempDewpointWater temp
2016-Apr-26 16:32S 27°40' W 048°07'16920.7
2016-Apr-26 08:22S 25°04' W 046°51'1720.7
2016-Apr-26 07:33S 24°49' W 046°44'2020.0
2016-Apr-26 06:33S 24°31' W 046°35'1919.2
2016-Apr-26 05:33S 24°13' W 046°27'1514.8
2016-Apr-26 04:33S 23°60' W 046°20'5 1.4
2016-Apr-26 01:12S 23°55' W 046°21'0 0.0
2016-Apr-26 00:30S 23°55' W 046°21'0 0.0
2016-Apr-25 23:09S 23°55' W 046°21'0 0.0
2016-Apr-25 22:30S 23°55' W 046°21'0 0.0
2016-Apr-25 21:30S 23°55' W 046°21'0 0.0
2016-Apr-25 20:30S 23°55' W 046°21'0 0.0
2016-Apr-25 19:27S 23°55' W 046°21'0 0.0
2016-Apr-25 11:06S 23°55' W 046°21'2 3.8
2016-Apr-25 10:32S 23°56' W 046°19'6 6.4
2016-Apr-25 09:33S 24°02' W 046°21'1110.7
2016-Apr-25 08:33S 24°13' W 046°21'6 5.9
2016-Apr-25 07:33S 24°18' W 046°18'1 0.9
2016-Apr-25 06:34S 24°17' W 046°18'4 3.7
2016-Apr-25 05:33S 24°16' W 046°14'7 6.5
2016-Apr-25 04:33S 24°16' W 046°07'7 7.1
2016-Apr-25 03:33S 24°16' W 045°59'1413.5
2016-Apr-25 02:33S 24°16' W 045°44'1413.9
2016-Apr-25 01:33S 24°14' W 045°29'1414.0
2016-Apr-25 00:33S 24°10' W 045°14'1414.2
2016-Apr-24 23:33S 24°06' W 044°59'1414.5
2016-Apr-24 22:34S 24°02' W 044°44'1414.4
2016-Apr-24 21:33S 23°58' W 044°29'1414.3
2016-Apr-24 20:33S 23°54' W 044°14'1414.4
2016-Apr-24 19:33S 23°50' W 043°59'1914.1
2016-Apr-24 18:11S 23°45' W 043°38'1614.1
2016-Apr-24 17:05S 23°40' W 043°22'714.0
2016-Apr-24 16:33S 23°38' W 043°14'1414.1
2016-Apr-24 15:33S 23°34' W 042°60'1515.5
2016-Apr-24 14:34S 23°30' W 042°43'2019.9
2016-Apr-24 13:33S 23°24' W 042°23'2222.0
2016-Apr-24 12:33S 23°18' W 041°60'1919.2
2016-Apr-24 11:33S 23°07' W 041°42'2116.9
2016-Apr-24 10:18S 22°53' W 041°25'  

Dump ship's entire track history